• Join FlightAware (Why Join?)
  • Login
  • US Flag 
03:02AM EST


 

Airport Tracker/Info


-or-


 

Live Flight TrackerFlight Track Log ✈ ASQ5025 ✈ 06-May-2013 ✈ KBTV - KLGA

Flight Track Log - Related Links

Times and Time Zones

All times are in EDT time to prevent confusion due to time zone crossing. See the ASQ5025 flight status page for this flight to view local times or setup timezone preferences in your user account.

Time Position Orientation Groundspeed Altitude Reporting Facility
EDT Latitude Longitude Course Direction KTS MPH feet Rate Location/Type
11:24AM 44.3989 -73.1286 196° South 187 215 3,700  Level Boston Center
11:25AM 44.3342 -73.1250 178° South 218 251 6,100 2,038 Climbing Boston Center
11:27AM 44.2367 -73.1467 196° South  Level Estimated
11:30AM 44.0022 -73.3258 196° South  Level FlightAware Approximate
11:30AM 43.9842 -73.1325 195° South 356 410 14,300  Level Boston Center
11:31AM 43.8800 -73.1544 189° South 379 436 16,300 1,850 Climbing Boston Center
11:32AM 43.7756 -73.1792 190° South 387 445 18,000 1,950 Climbing Boston Center
11:33AM 43.6586 -73.2033 189° South 393 452 20,200 1,850 Climbing Boston Center
11:34AM 43.6861 -73.4471 195° South  Level FlightAware Approximate
11:34AM 43.5503 -73.2250 188° South 393 452 21,700  Level Boston Center
11:35AM 43.6045 -73.4777 195° South  Level FlightAware Approximate
11:36AM 43.3865 -73.2649 190° South  Level Estimated
11:38AM 43.0994 -73.3244 190° South 423 487 26,000  Level Boston Center
11:39AM 42.9742 -73.3539 190° South 447 514 26,000 -567 Level Boston Center
11:41AM 42.7444 -73.4042 189° South 467 537 24,300 -967 Descending Boston Center
11:42AM 42.5878 -73.4356 188° South 472 543 23,100 -1,100 Descending Boston Center
11:43AM 42.8035 -73.4052 190° South  Level Estimated
11:43AM 42.4644 -73.4644 190° South 467 537 22,100  Level Boston Center
11:44AM 42.3581 -73.4853 188° South 433 498 21,100 -1,100 Descending Boston Center
11:45AM 42.2642 -73.4950 184° South 376 433 19,900 -950 Descending Boston Center
11:46AM 42.1556 -73.5183 189° South 364 419 19,200 -750 Descending Boston Center
11:47AM 42.0783 -73.5422 193° South 350 403 18,400 -600 Descending Boston Center
11:48AM 41.9989 -73.5575 188° South 305 351 18,000 -200 Descending Boston Center
11:49AM 41.9603 -73.6658 244° Southwest 267 307 18,000 -367 Level Boston Center
11:51AM 41.8997 -73.8569 247° West 269 310 16,900 -700 Descending Boston Center
11:52AM 41.8525 -73.7947 136° Southeast 168 193 15,900 -1,000 Descending Boston Center
11:53AM 41.8119 -73.6992 120° Southeast 183 211 14,900 -950 Descending Boston Center
11:54AM 41.7836 -73.6206 116° Southeast 224 258 14,000 -1,467 Descending Boston Center
11:56AM 41.6481 -73.6375 185° South 238 274 10,500 -1,596 Descending Boston Center
11:57AM 41.5667 -73.6833 203° Southwest 272 313 9,000 -642 Descending New York TRACON
11:59AM 41.4167 -73.7667 203° Southwest 280 322 8,500 -333 Descending New York TRACON
12:00PM 41.3500 -73.7833 191° South 277 319 8,000 -600 Descending New York TRACON
12:02PM 41.2063 -73.6729 143° Southeast  Level FlightAware Approximate
12:03PM 41.1500 -73.6333 143° Southeast 278 320 6,100  Level New York TRACON
12:05PM 41.0333 -73.6667 192° South 261 300 4,100 -525 Descending New York TRACON
12:07PM 40.8761 -73.7744 204° Southwest  Level FlightAware Approximate
12:07PM 40.9667 -73.8333 204° Southwest 261 300 4,000  Level New York TRACON
12:08PM 40.9167 -73.8833 217° Southwest 261 300 4,000  Level New York TRACON
12:10PM 40.8000 -73.9667 208° Southwest 203 234 4,000  Level New York TRACON
12:11PM 40.7500 -74.0000 207° Southwest 181 208 4,000  Level New York TRACON
12:13PM 40.6667 -74.0667 211° Southwest 180 207 4,000  Level New York TRACON
12:14PM 40.6167 -74.0833 194° South 183 211 4,000 -600 Level New York TRACON
12:15PM 40.6000 -74.0500 123° Southeast 191 220 2,800 -552 Descending New York TRACON
12:17PM 40.6667 -73.9667 43° Northeast 184 212 2,400 -483 Descending New York TRACON
12:18PM 40.7167 -73.9333 27° Northeast 178 205 1,400 -900 Descending New York TRACON
12:19PM 40.7500 -73.9000 37° Northeast 136 157 600 -800 Descending New York TRACON